Time;durP1;ratioP1;P1;durP2;ratioP2;P2;SDS_P1;SDS_P2;PMS_P1;PMS_P2;Temp;Humidity;BMP_temperature;BMP_pressure;BME280_temperature;BME280_humidity;BME280_pressure;Samples;Min_cycle;Max_cycle;Signal;HPM_P1;HPM_P2
2021/01/12 00:02:22;;;;;;;1999.90;999.90;;;5.40;99.90;;;;;;4998060;28;20659;-83
2021/01/12 00:04:48;;;;;;;1999.90;999.90;;;5.40;99.90;;;;;;4997404;28;20220;-83
2021/01/12 00:07:14;;;;;;;1999.90;999.90;;;5.50;99.90;;;;;;5015209;28;20580;-83
2021/01/12 00:09:40;;;;;;;1999.90;999.90;;;5.50;99.90;;;;;;5015783;28;20170;-84
2021/01/12 00:12:07;;;;;;;1999.90;999.90;;;5.50;99.90;;;;;;5015251;28;20196;-83
2021/01/12 00:14:33;;;;;;;1999.90;999.90;;;5.50;99.90;;;;;;5015764;28;20162;-84
2021/01/12 00:17:04;;;;;;;1999.90;999.90;;;5.50;99.90;;;;;;4998293;28;20188;-84
2021/01/12 00:19:31;;;;;;;1999.90;999.90;;;5.50;99.90;;;;;;5015067;28;20173;-84
2021/01/12 00:21:58;;;;;;;1999.90;999.90;;;5.50;99.90;;;;;;4997364;28;20264;-83
2021/01/12 00:24:24;;;;;;;1999.90;999.90;;;5.40;99.90;;;;;;5017606;28;20166;-83
2021/01/12 00:26:50;;;;;;;1999.90;999.90;;;5.50;99.90;;;;;;5001352;28;20176;-82
2021/01/12 00:29:16;;;;;;;1999.90;999.90;;;5.40;99.90;;;;;;5018792;28;20170;-82
2021/01/12 00:31:43;;;;;;;1999.90;999.90;;;5.50;99.90;;;;;;5000735;28;20194;-83
2021/01/12 00:34:10;;;;;;;1999.90;999.90;;;5.50;99.90;;;;;;5000799;28;20170;-82
2021/01/12 00:36:54;;;;;;;1999.90;999.90;;;5.50;99.90;;;;;;5019044;28;20249;-82
2021/01/12 00:39:21;;;;;;;1999.90;999.90;;;5.50;99.90;;;;;;5001186;28;20228;-82
2021/01/12 00:41:57;;;;;;;1999.90;999.90;;;5.50;99.90;;;;;;5001972;28;20174;-83
2021/01/12 00:44:27;;;;;;;1999.90;999.90;;;5.50;99.90;;;;;;5018953;28;20243;-82
2021/01/12 00:46:53;;;;;;;1999.90;999.90;;;5.50;99.90;;;;;;5018508;28;20216;-82
2021/01/12 00:49:25;;;;;;;1999.90;999.90;;;5.60;99.90;;;;;;5087496;23;20214;-80
2021/01/12 00:51:53;;;;;;;1999.90;999.90;;;5.60;99.90;;;;;;5021599;28;20186;-80
2021/01/12 00:54:30;;;;;;;1999.90;999.90;;;5.60;99.90;;;;;;5021363;28;20162;-79
2021/01/12 00:56:58;;;;;;;1999.90;999.90;;;5.60;99.90;;;;;;5021684;28;20716;-80
2021/01/12 00:59:27;;;;;;;1999.90;999.90;;;5.60;99.90;;;;;;5004788;28;20169;-81
2021/01/12 01:01:56;;;;;;;1999.90;999.90;;;5.60;99.90;;;;;;5003196;28;20166;-80
2021/01/12 01:04:26;;;;;;;1999.90;999.90;;;5.60;99.90;;;;;;5021279;28;20244;-80
2021/01/12 01:06:57;;;;;;;1999.90;999.90;;;5.70;99.90;;;;;;5019932;28;20255;-80
2021/01/12 01:09:28;;;;;;;1999.90;999.90;;;5.70;99.90;;;;;;5021276;28;20210;-80
2021/01/12 01:11:57;;;;;;;1999.90;999.90;;;5.70;99.90;;;;;;5019714;28;20194;-80
2021/01/12 01:14:23;;;;;;;1999.90;999.90;;;5.70;99.90;;;;;;5021022;28;20217;-80
2021/01/12 01:16:52;;;;;;;1999.90;999.90;;;5.70;99.90;;;;;;5021782;28;20274;-80
2021/01/12 01:19:21;;;;;;;1999.90;999.90;;;5.80;99.90;;;;;;5020847;28;20166;-80
2021/01/12 01:21:48;;;;;;;1999.90;999.90;;;5.80;99.90;;;;;;5020762;28;20172;-80
2021/01/12 01:24:20;;;;;;;1999.90;999.90;;;5.80;99.90;;;;;;5004001;28;20174;-79
2021/01/12 01:26:46;;;;;;;1999.90;999.90;;;5.90;99.90;;;;;;5021135;28;20192;-81
2021/01/12 01:29:14;;;;;;;1999.90;999.90;;;5.90;99.90;;;;;;5021061;28;20165;-80
2021/01/12 01:31:42;;;;;;;1999.90;999.90;;;5.90;99.90;;;;;;5021074;28;20210;-80
2021/01/12 01:34:08;;;;;;;1999.90;999.90;;;5.90;99.90;;;;;;5003115;28;20252;-80
2021/01/12 01:36:34;;;;;;;1999.90;999.90;;;5.90;99.90;;;;;;5002909;28;20312;-79
2021/01/12 01:39:03;;;;;;;1999.90;999.90;;;5.90;99.90;;;;;;5020673;28;20444;-80
2021/01/12 01:41:29;;;;;;;1999.90;999.90;;;5.90;99.90;;;;;;5003173;28;20437;-80
2021/01/12 01:43:55;;;;;;;1999.90;999.90;;;5.90;99.90;;;;;;5003905;28;20228;-80
2021/01/12 01:46:20;;;;;;;1999.90;999.90;;;5.90;99.90;;;;;;5020845;28;20397;-79
2021/01/12 01:48:52;;;;;;;1999.90;999.90;;;5.90;99.90;;;;;;5002758;28;20425;-79
2021/01/12 01:51:18;;;;;;;1999.90;999.90;;;5.90;99.90;;;;;;5021005;28;20193;-79
2021/01/12 01:53:47;;;;;;;1999.90;999.90;;;5.90;99.90;;;;;;5021806;28;20243;-79
2021/01/12 01:56:13;;;;;;;1999.90;999.90;;;5.80;99.90;;;;;;4987317;28;20192;-81
2021/01/12 01:58:42;;;;;;;1999.90;999.90;;;5.90;99.90;;;;;;5020465;28;20162;-80
2021/01/12 02:01:09;;;;;;;1999.90;999.90;;;5.90;99.90;;;;;;5020901;28;20177;-80
2021/01/12 02:04:00;;;;;;;1999.90;999.90;;;5.80;99.90;;;;;;5003576;28;20675;-79
2021/01/12 02:06:32;;;;;;;1999.90;999.90;;;5.80;99.90;;;;;;5020521;28;20181;-79
2021/01/12 02:09:20;;;;;;;1999.90;999.90;;;5.80;99.90;;;;;;5020634;28;20151;-80
2021/01/12 02:11:59;;;;;;;1999.90;999.90;;;5.70;99.90;;;;;;5020264;28;20587;-80
2021/01/12 02:14:27;;;;;;;1999.90;999.90;;;5.80;99.90;;;;;;5002693;28;20158;-80
2021/01/12 02:16:56;;;;;;;1999.90;999.90;;;5.80;99.90;;;;;;5002221;28;20194;-79
2021/01/12 02:19:26;;;;;;;1999.90;999.90;;;5.70;99.90;;;;;;5020145;28;20176;-79
2021/01/12 02:22:04;;;;;;;1999.90;999.90;;;5.70;99.90;;;;;;5002443;28;20196;-80
2021/01/12 02:24:33;;;;;;;1999.90;999.90;;;5.80;99.90;;;;;;5019729;28;20208;-79
2021/01/12 02:27:01;;;;;;;1999.90;999.90;;;5.80;99.90;;;;;;5018849;28;20169;-80
2021/01/12 02:29:27;;;;;;;1999.90;999.90;;;5.80;99.90;;;;;;5019096;28;20178;-79
2021/01/12 02:31:56;;;;;;;1999.90;999.90;;;5.80;99.90;;;;;;5019482;28;20197;-79
2021/01/12 02:34:25;;;;;;;1999.90;999.90;;;5.80;99.90;;;;;;5001356;28;20540;-80
2021/01/12 02:36:51;;;;;;;1999.90;999.90;;;5.70;99.90;;;;;;5019362;28;20511;-79
2021/01/12 02:39:17;;;;;;;1999.90;999.90;;;5.70;99.90;;;;;;5019538;28;20634;-79
2021/01/12 02:41:45;;;;;;;1999.90;999.90;;;5.70;99.90;;;;;;5018996;28;20170;-79
2021/01/12 02:44:22;;;;;;;1999.90;999.90;;;5.70;99.90;;;;;;5019288;28;20173;-79
2021/01/12 02:46:55;;;;;;;1999.90;999.90;;;5.60;99.90;;;;;;5017531;28;20165;-79
2021/01/12 02:49:21;;;;;;;1999.90;999.90;;;5.60;99.90;;;;;;4999862;28;20221;-79
2021/01/12 02:51:47;;;;;;;1999.90;999.90;;;5.60;99.90;;;;;;5018944;28;20178;-79
2021/01/12 02:54:12;;;;;;;1999.90;999.90;;;5.50;99.90;;;;;;5002485;28;20411;-79
2021/01/12 02:56:41;;;;;;;1999.90;999.90;;;5.50;99.90;;;;;;5001265;28;20169;-80
2021/01/12 02:59:09;;;;;;;1999.90;999.90;;;5.60;99.90;;;;;;5000838;28;20173;-80
2021/01/12 03:01:35;;;;;;;1999.90;999.90;;;5.60;99.90;;;;;;5018112;28;20181;-80
2021/01/12 03:04:01;;;;;;;1999.90;999.90;;;5.70;99.90;;;;;;5018109;28;20162;-80
2021/01/12 03:06:26;;;;;;;1999.90;999.90;;;5.70;99.90;;;;;;5018058;28;20177;-80
2021/01/12 03:08:54;;;;;;;1999.90;999.90;;;5.70;99.90;;;;;;5000276;28;20173;-79
2021/01/12 03:11:20;;;;;;;1999.90;999.90;;;5.70;99.90;;;;;;5000818;28;20193;-80
2021/01/12 03:13:46;;;;;;;1999.90;999.90;;;5.70;99.90;;;;;;5018836;28;20176;-80
2021/01/12 03:16:11;;;;;;;1999.90;999.90;;;5.70;99.90;;;;;;5000702;28;20261;-80
2021/01/12 03:18:37;;;;;;;1999.90;999.90;;;5.70;99.90;;;;;;5000156;28;20181;-80
2021/01/12 03:21:03;;;;;;;1999.90;999.90;;;5.70;99.90;;;;;;5000533;28;20526;-80
2021/01/12 03:23:29;;;;;;;1999.90;999.90;;;5.80;99.90;;;;;;5000262;28;20181;-80
2021/01/12 03:25:55;;;;;;;1999.90;999.90;;;5.90;99.90;;;;;;5018237;28;20177;-80
2021/01/12 03:28:23;;;;;;;1999.90;999.90;;;5.90;99.90;;;;;;5018021;28;20173;-79
2021/01/12 03:30:49;;;;;;;1999.90;999.90;;;5.80;99.90;;;;;;5018204;28;20170;-79
2021/01/12 03:33:14;;;;;;;1999.90;999.90;;;5.80;99.90;;;;;;5018070;28;20185;-79
2021/01/12 03:35:40;;;;;;;1999.90;999.90;;;5.80;99.90;;;;;;5018368;28;20216;-79
2021/01/12 03:38:06;;;;;;;1999.90;999.90;;;5.90;99.90;;;;;;5017678;28;20166;-79
2021/01/12 03:40:31;;;;;;;1999.90;999.90;;;5.90;99.90;;;;;;4999962;28;20189;-79
2021/01/12 03:42:57;;;;;;;1999.90;999.90;;;5.90;99.90;;;;;;5018432;28;20173;-79
2021/01/12 03:45:23;;;;;;;1999.90;999.90;;;5.90;99.90;;;;;;5017713;28;20170;-79
2021/01/12 03:47:48;;;;;;;1999.90;999.90;;;6.00;99.90;;;;;;5018056;28;20169;-79
2021/01/12 03:50:17;;;;;;;1999.90;999.90;;;6.10;99.90;;;;;;5017662;28;20197;-79
2021/01/12 03:52:48;;;;;;;1999.90;999.90;;;6.10;99.90;;;;;;5017918;28;20237;-79
2021/01/12 03:55:14;;;;;;;1999.90;999.90;;;6.10;99.90;;;;;;5000413;28;20181;-79
2021/01/12 03:57:39;;;;;;;1999.90;999.90;;;6.10;99.90;;;;;;5001563;28;20166;-79
2021/01/12 04:00:06;;;;;;;1999.90;999.90;;;6.00;99.90;;;;;;5022053;28;20252;-79
2021/01/12 04:02:31;;;;;;;1999.90;999.90;;;5.90;99.90;;;;;;5004805;28;20201;-79
2021/01/12 04:05:04;;;;;;;1999.90;999.90;;;5.90;99.90;;;;;;5022171;28;20165;-79
2021/01/12 04:07:29;;;;;;;1999.90;999.90;;;5.80;99.90;;;;;;5022342;28;20296;-79
2021/01/12 04:09:58;;;;;;;1999.90;999.90;;;5.80;99.90;;;;;;5022952;28;20166;-79
2021/01/12 04:12:25;;;;;;;1999.90;999.90;;;5.70;99.90;;;;;;5021959;28;20194;-80
2021/01/12 04:14:50;;;;;;;1999.90;999.90;;;5.70;99.90;;;;;;5003841;28;20178;-79
2021/01/12 04:17:16;;;;;;;1999.90;999.90;;;5.70;99.90;;;;;;5004607;28;20185;-79
2021/01/12 04:19:44;;;;;;;1999.90;999.90;;;5.60;99.90;;;;;;5021605;28;20639;-80
2021/01/12 04:22:13;;;;;;;1999.90;999.90;;;5.60;99.90;;;;;;5022132;28;20197;-80
2021/01/12 04:24:39;;;;;;;1999.90;999.90;;;5.60;99.90;;;;;;5021948;28;20178;-79
2021/01/12 04:27:11;;;;;;;1999.90;999.90;;;5.60;99.90;;;;;;5003970;28;20174;-79
2021/01/12 04:29:39;;;;;;;1999.90;999.90;;;5.50;99.90;;;;;;5004014;28;20168;-79
2021/01/12 04:32:05;;;;;;;1999.90;999.90;;;5.60;99.90;;;;;;5021222;28;20193;-79
2021/01/12 04:34:31;;;;;;;1999.90;999.90;;;5.60;99.90;;;;;;5021557;28;20249;-79
2021/01/12 04:36:56;;;;;;;1999.90;999.90;;;5.60;99.90;;;;;;5021879;28;20162;-79
2021/01/12 04:39:25;;;;;;;1999.90;999.90;;;5.50;99.90;;;;;;5001157;28;20217;-79
2021/01/12 04:41:51;;;;;;;1999.90;999.90;;;5.50;99.90;;;;;;5021522;28;20162;-79
2021/01/12 04:44:16;;;;;;;1999.90;999.90;;;5.60;99.90;;;;;;5021597;28;20185;-80
2021/01/12 04:46:45;;;;;;;1999.90;999.90;;;5.60;99.90;;;;;;5003513;28;20181;-79
2021/01/12 04:49:11;;;;;;;1999.90;999.90;;;5.60;99.90;;;;;;5020355;28;20205;-79
2021/01/12 04:51:37;;;;;;;1999.90;999.90;;;5.50;99.90;;;;;;5021429;28;20221;-79
2021/01/12 04:54:03;;;;;;;1999.90;999.90;;;5.50;99.90;;;;;;5003146;28;20166;-79
2021/01/12 04:56:29;;;;;;;1999.90;999.90;;;5.60;99.90;;;;;;5021291;28;20182;-79
2021/01/12 04:58:58;;;;;;;1999.90;999.90;;;5.60;99.90;;;;;;5020458;28;20170;-80
2021/01/12 05:01:29;;;;;;;1999.90;999.90;;;5.70;99.90;;;;;;5021264;28;20166;-79
2021/01/12 05:03:54;;;;;;;1999.90;999.90;;;5.70;99.90;;;;;;5020799;28;20154;-79
2021/01/12 05:06:27;;;;;;;1999.90;999.90;;;5.70;99.90;;;;;;5003023;28;20328;-79
2021/01/12 05:08:58;;;;;;;1999.90;999.90;;;5.80;99.90;;;;;;5020231;28;20167;-80
2021/01/12 05:12:01;;;;;;;1999.90;999.90;;;5.70;99.90;;;;;;5019247;28;20182;-80
2021/01/12 05:14:28;;;;;;;1999.90;999.90;;;5.60;99.90;;;;;;5003025;28;20220;-80
2021/01/12 05:16:56;;;;;;;1999.90;999.90;;;5.60;99.90;;;;;;5002502;28;20510;-80
2021/01/12 05:19:35;;;;;;;1999.90;999.90;;;5.60;99.90;;;;;;5002979;28;20170;-80
2021/01/12 05:22:14;;;;;;;1999.90;999.90;;;5.60;99.90;;;;;;5021267;28;20620;-80
2021/01/12 05:24:48;;;;;;;1999.90;999.90;;;5.70;99.90;;;;;;5020201;28;20158;-80
2021/01/12 05:27:19;;;;;;;1999.90;999.90;;;5.80;99.90;;;;;;5020867;28;20154;-80
2021/01/12 05:29:49;;;;;;;1999.90;999.90;;;5.80;99.90;;;;;;5018806;28;20216;-80
2021/01/12 05:32:20;;;;;;;1999.90;999.90;;;5.90;99.90;;;;;;5020071;28;20620;-80
2021/01/12 05:34:59;;;;;;;1999.90;999.90;;;5.90;99.90;;;;;;5020140;28;20240;-80
2021/01/12 05:37:42;;;;;;;1999.90;999.90;;;6.00;99.90;;;;;;5020267;28;20150;-80
2021/01/12 05:40:16;;;;;;;1999.90;999.90;;;6.00;99.90;;;;;;5020012;28;20150;-80
2021/01/12 05:42:50;;;;;;;1999.90;999.90;;;6.10;99.90;;;;;;5020797;28;20233;-80
2021/01/12 05:45:32;;;;;;;1999.90;999.90;;;6.20;99.90;;;;;;5018406;28;20209;-80
2021/01/12 05:48:05;;;;;;;1999.90;999.90;;;6.30;99.90;;;;;;5002327;28;20514;-80
2021/01/12 05:50:40;;;;;;;1999.90;999.90;;;6.30;99.90;;;;;;5020369;28;20216;-81
2021/01/12 05:57:17;;;;;;;1999.90;999.90;;;6.40;99.90;;;;;;5012485;28;20169;-80
2021/01/12 05:59:52;;;;;;;1999.90;999.90;;;6.40;99.90;;;;;;4951284;28;20253;-80
2021/01/12 06:02:27;;;;;;;1999.90;999.90;;;6.40;99.90;;;;;;5003197;28;20237;-80
2021/01/12 06:04:54;;;;;;;1999.90;999.90;;;6.50;99.90;;;;;;5020143;28;20177;-80
2021/01/12 06:07:29;;;;;;;1999.90;999.90;;;6.50;99.90;;;;;;5020618;28;20170;-80
2021/01/12 06:09:57;;;;;;;1999.90;999.90;;;6.50;99.90;;;;;;5020130;28;20179;-80
2021/01/12 06:12:31;;;;;;;1999.90;999.90;;;6.50;99.90;;;;;;5019060;28;20185;-80
2021/01/12 06:14:59;;;;;;;1999.90;999.90;;;6.50;99.90;;;;;;5019675;28;20200;-80
2021/01/12 06:17:35;;;;;;;1999.90;999.90;;;6.50;99.90;;;;;;5002446;28;20192;-80
2021/01/12 06:20:30;;;;;;;1999.90;999.90;;;6.50;99.90;;;;;;5017897;28;20170;-80
2021/01/12 06:23:11;;;;;;;1999.90;999.90;;;6.60;99.90;;;;;;5000494;28;20170;-80
2021/01/12 06:26:05;;;;;;;1999.90;999.90;;;6.50;99.90;;;;;;5019306;28;20200;-80
2021/01/12 06:28:37;;;;;;;1999.90;999.90;;;6.50;99.90;;;;;;5001734;28;20166;-80
2021/01/12 06:31:35;;;;;;;1999.90;999.90;;;6.60;99.90;;;;;;5020017;28;20192;-80
2021/01/12 06:34:07;;;;;;;1999.90;999.90;;;6.60;99.90;;;;;;5000517;28;20182;-80
2021/01/12 06:36:40;;;;;;;1999.90;999.90;;;6.50;99.90;;;;;;5018051;28;20172;-80
2021/01/12 06:40:12;;;;;;;;;;;;;;;;;;;;;
2021/01/12 06:42:41;;;;;;;1999.90;999.90;;;6.50;99.90;;;;;;5014916;28;20256;-81
2021/01/12 06:45:17;;;;;;;1999.90;999.90;;;6.50;99.90;;;;;;5019448;28;20165;-80
2021/01/12 06:47:49;;;;;;;1999.90;999.90;;;6.60;99.90;;;;;;5020176;28;20181;-81
2021/01/12 06:50:18;;;;;;;1999.90;999.90;;;6.60;99.90;;;;;;5085457;23;20249;-81
2021/01/12 06:52:45;;;;;;;1999.90;999.90;;;6.60;99.90;;;;;;5000059;28;20216;-81
2021/01/12 06:55:12;;;;;;;1999.90;999.90;;;6.60;99.90;;;;;;5019083;28;20190;-82
2021/01/12 06:57:41;;;;;;;1999.90;999.90;;;6.70;99.90;;;;;;5001418;28;20177;-82
2021/01/12 07:00:08;;;;;;;1999.90;999.90;;;6.60;99.90;;;;;;5001212;28;20174;-82
2021/01/12 07:02:34;;;;;;;1999.90;999.90;;;6.60;99.90;;;;;;5018492;28;20176;-82
2021/01/12 07:05:08;;;;;;;1999.90;999.90;;;6.60;99.90;;;;;;5017984;28;20165;-82
2021/01/12 07:07:37;;;;;;;1999.90;999.90;;;6.60;99.90;;;;;;4999909;28;20568;-81
2021/01/12 07:10:09;;;;;;;1999.90;999.90;;;6.70;99.90;;;;;;5017773;28;20170;-82
2021/01/12 07:12:42;;;;;;;1999.90;999.90;;;6.70;99.90;;;;;;5000143;28;20197;-82
2021/01/12 07:15:09;;;;;;;1999.90;999.90;;;6.70;99.90;;;;;;5000714;28;20649;-82
2021/01/12 07:17:41;;;;;;;1999.90;999.90;;;6.70;99.90;;;;;;5017944;28;20230;-82
2021/01/12 07:20:12;;;;;;;1999.90;999.90;;;6.70;99.90;;;;;;5017774;28;20162;-83
2021/01/12 07:22:40;;;;;;;1999.90;999.90;;;6.70;99.90;;;;;;5018199;28;20201;-82
2021/01/12 07:25:10;;;;;;;1999.90;999.90;;;6.70;99.90;;;;;;5017926;28;20162;-82
2021/01/12 07:27:37;;;;;;;1999.90;999.90;;;6.70;99.90;;;;;;5017485;28;20229;-82
2021/01/12 07:30:07;;;;;;;1999.90;999.90;;;6.70;99.90;;;;;;5019103;28;20187;-84
2021/01/12 07:32:40;;;;;;;1999.90;999.90;;;6.70;99.90;;;;;;5002053;28;20684;-83
2021/01/12 07:35:10;;;;;;;1999.90;999.90;;;6.70;99.90;;;;;;5001665;28;20177;-83
2021/01/12 07:37:39;;;;;;;1999.90;999.90;;;6.70;99.90;;;;;;5001886;28;20178;-83
2021/01/12 07:40:29;;;;;;;1999.90;999.90;;;6.70;99.90;;;;;;5018778;28;20249;-82
2021/01/12 07:42:57;;;;;;;1999.90;999.90;;;6.70;99.90;;;;;;5016906;28;20162;-82
2021/01/12 07:45:37;;;;;;;1999.90;999.90;;;6.70;99.90;;;;;;5001593;28;20178;-82
2021/01/12 07:48:03;;;;;;;1999.90;999.90;;;6.70;99.90;;;;;;5019299;28;20142;-83
2021/01/12 07:50:31;;;;;;;1999.90;999.90;;;6.70;99.90;;;;;;5018496;28;20178;-82
2021/01/12 07:52:58;;;;;;;1999.90;999.90;;;6.70;99.90;;;;;;5017868;28;20194;-84
2021/01/12 07:55:27;;;;;;;1999.90;999.90;;;6.70;99.90;;;;;;5018066;28;20165;-83
2021/01/12 07:57:54;;;;;;;1999.90;999.90;;;6.80;99.90;;;;;;5018885;28;20226;-84
2021/01/12 08:00:23;;;;;;;1999.90;999.90;;;6.80;99.90;;;;;;5017964;28;20189;-83
2021/01/12 08:02:54;;;;;;;1999.90;999.90;;;6.80;99.90;;;;;;5016782;28;20244;-82
2021/01/12 08:05:25;;;;;;;1999.90;999.90;;;6.80;99.90;;;;;;5017408;28;20321;-83
2021/01/12 08:08:08;;;;;;;1999.90;999.90;;;6.80;99.90;;;;;;4999661;28;20239;-83
2021/01/12 08:10:39;;;;;;;1999.90;999.90;;;6.80;99.90;;;;;;4998737;28;20178;-83
2021/01/12 08:13:06;;;;;;;1999.90;999.90;;;6.80;99.90;;;;;;4998489;28;20208;-82
2021/01/12 08:15:44;;;;;;;1999.90;999.90;;;6.90;99.90;;;;;;5016124;28;20162;-83
2021/01/12 08:18:12;;;;;;;1999.90;999.90;;;6.90;99.90;;;;;;4998449;28;20216;-82
2021/01/12 08:20:39;;;;;;;1999.90;999.90;;;6.90;99.90;;;;;;4999417;28;20162;-83
2021/01/12 08:23:09;;;;;;;1999.90;999.90;;;6.90;99.90;;;;;;5017401;28;20181;-84
2021/01/12 08:25:35;;;;;;;1999.90;999.90;;;6.90;99.90;;;;;;5000515;28;20194;-83
2021/01/12 08:28:04;;;;;;;1999.90;999.90;;;7.00;99.90;;;;;;5017178;28;20463;-84
2021/01/12 08:30:32;;;;;;;1999.90;999.90;;;7.00;99.90;;;;;;5018004;28;20173;-83
2021/01/12 08:33:08;;;;;;;1999.90;999.90;;;7.00;99.90;;;;;;4998687;28;20202;-82
2021/01/12 08:35:40;;;;;;;1999.90;999.90;;;7.00;99.90;;;;;;4998097;28;20178;-82
2021/01/12 08:38:07;;;;;;;1999.90;999.90;;;7.00;99.90;;;;;;5016635;28;20150;-82
2021/01/12 08:40:34;;;;;;;1999.90;999.90;;;7.00;99.90;;;;;;4998848;28;20224;-83
2021/01/12 08:43:20;;;;;;;1999.90;999.90;;;7.10;99.90;;;;;;5015601;28;20166;-82
2021/01/12 08:45:47;;;;;;;1999.90;999.90;;;7.10;99.90;;;;;;5019666;28;20644;-82
2021/01/12 08:48:16;;;;;;;1999.90;999.90;;;7.10;99.90;;;;;;5004682;28;20532;-82
2021/01/12 08:50:43;;;;;;;1999.90;999.90;;;7.10;99.90;;;;;;5004547;28;20216;-82
2021/01/12 08:53:10;;;;;;;1999.90;999.90;;;7.10;99.90;;;;;;5003944;28;20676;-82
2021/01/12 08:55:39;;;;;;;1999.90;999.90;;;7.10;99.90;;;;;;5000378;28;20220;-82
2021/01/12 08:58:06;;;;;;;1999.90;999.90;;;7.10;99.90;;;;;;5018142;28;20556;-82
2021/01/12 09:00:40;;;;;;;1999.90;999.90;;;7.20;99.90;;;;;;5000533;28;20510;-83
2021/01/12 09:03:07;;;;;;;1999.90;999.90;;;7.20;99.90;;;;;;5017457;28;20154;-82
2021/01/12 09:05:38;;;;;;;1999.90;999.90;;;7.20;99.90;;;;;;4999382;28;20177;-82
2021/01/12 09:08:24;;;;;;;1999.90;999.90;;;7.20;99.90;;;;;;5000454;28;20165;-84
2021/01/12 09:10:51;;;;;;;1999.90;999.90;;;7.20;99.90;;;;;;5018491;28;20636;-84
2021/01/12 09:13:25;;;;;;;1999.90;999.90;;;7.30;99.90;;;;;;5020761;28;20248;-83
2021/01/12 09:16:51;;;;;;;1999.90;999.90;;;7.30;99.90;;;;;;5020909;28;20187;-82
2021/01/12 09:19:40;;;;;;;1999.90;999.90;;;7.40;99.90;;;;;;4959937;28;20244;-82
2021/01/12 09:22:16;;;;;;;1999.90;999.90;;;7.40;99.90;;;;;;4948417;29;20192;-83
2021/01/12 09:24:55;;;;;;;1999.90;999.90;;;7.40;99.90;;;;;;4999722;28;20173;-83
2021/01/12 09:27:26;;;;;;;1999.90;999.90;;;7.40;99.90;;;;;;5004270;28;20154;-83
2021/01/12 09:29:52;;;;;;;1999.90;999.90;;;7.50;99.90;;;;;;5021740;28;20177;-83
2021/01/12 09:32:46;;;;;;;1999.90;999.90;;;7.50;99.90;;;;;;5022045;28;20193;-83
2021/01/12 09:35:19;;;;;;;1999.90;999.90;;;7.50;99.90;;;;;;5002218;28;20178;-82
2021/01/12 09:37:55;;;;;;;1999.90;999.90;;;7.50;99.90;;;;;;5020096;28;20151;-82
2021/01/12 09:40:21;;;;;;;1999.90;999.90;;;7.50;99.90;;;;;;5020024;28;20578;-82
2021/01/12 09:42:50;;;;;;;1999.90;999.90;;;7.60;99.90;;;;;;5001682;28;20197;-82
2021/01/12 09:45:15;;;;;;;1999.90;999.90;;;7.60;99.90;;;;;;5002545;28;20178;-82
2021/01/12 09:47:47;;;;;;;1999.90;999.90;;;7.60;99.90;;;;;;5021191;28;20166;-83
2021/01/12 09:50:13;;;;;;;1999.90;999.90;;;7.60;99.90;;;;;;5003691;28;20876;-82
2021/01/12 09:52:57;;;;;;;1999.90;999.90;;;7.60;99.90;;;;;;5003236;28;20205;-82
2021/01/12 09:55:23;;;;;;;1999.90;999.90;;;7.60;99.90;;;;;;5020352;28;20177;-82
2021/01/12 09:57:52;;;;;;;1999.90;999.90;;;7.60;99.90;;;;;;5020233;28;20162;-82
2021/01/12 10:00:21;;;;;;;1999.90;999.90;;;7.70;99.90;;;;;;5015563;28;20185;-82
2021/01/12 10:02:47;;;;;;;1999.90;999.90;;;7.70;99.90;;;;;;5018319;28;20220;-82
2021/01/12 10:05:13;;;;;;;1999.90;999.90;;;7.70;99.90;;;;;;5017960;28;20170;-82
2021/01/12 10:07:39;;;;;;;1999.90;999.90;;;7.70;99.90;;;;;;5017391;28;20166;-82
2021/01/12 10:10:05;;;;;;;1999.90;999.90;;;7.70;99.90;;;;;;5017237;28;20436;-82
2021/01/12 10:12:31;;;;;;;1999.90;999.90;;;7.70;99.90;;;;;;5017256;28;20448;-82
2021/01/12 10:14:57;;;;;;;1999.90;999.90;;;7.80;99.90;;;;;;5017272;28;20161;-82
2021/01/12 10:17:23;;;;;;;1999.90;999.90;;;7.80;99.90;;;;;;5016991;28;20162;-82
2021/01/12 10:19:55;;;;;;;1999.90;999.90;;;7.80;99.90;;;;;;5018680;28;20412;-82
2021/01/12 10:22:23;;;;;;;1999.90;999.90;;;7.80;99.90;;;;;;5001520;28;20827;-83
2021/01/12 10:24:50;;;;;;;1999.90;999.90;;;7.80;99.90;;;;;;5001703;28;20652;-83
2021/01/12 10:27:16;;;;;;;1999.90;999.90;;;7.90;99.90;;;;;;5019855;28;20184;-82
2021/01/12 10:29:43;;;;;;;1999.90;999.90;;;7.90;99.90;;;;;;5001222;28;20174;-83
2021/01/12 10:32:16;;;;;;;1999.90;999.90;;;8.00;99.90;;;;;;5020194;28;20236;-82
2021/01/12 10:34:41;;;;;;;1999.90;999.90;;;8.00;99.90;;;;;;5019140;28;20548;-82
2021/01/12 10:37:07;;;;;;;1999.90;999.90;;;8.00;99.90;;;;;;5018579;28;20224;-82
2021/01/12 10:39:33;;;;;;;1999.90;999.90;;;8.00;99.90;;;;;;5018294;28;20166;-82
2021/01/12 10:41:59;;;;;;;1999.90;999.90;;;8.10;99.90;;;;;;5001816;28;20219;-82
2021/01/12 10:44:24;;;;;;;1999.90;999.90;;;8.10;99.90;;;;;;5018929;28;20194;-82
2021/01/12 10:46:56;;;;;;;1999.90;999.90;;;8.10;99.90;;;;;;5001522;28;20181;-82
2021/01/12 10:52:44;;;;;;;1999.90;999.90;;;8.00;99.90;;;;;;5019319;28;20219;-82
2021/01/12 10:55:10;;;;;;;1999.90;999.90;;;8.00;99.90;;;;;;5019411;28;20613;-83
2021/01/12 10:57:36;;;;;;;1999.90;999.90;;;8.00;99.90;;;;;;5019010;28;20401;-83
2021/01/12 11:00:05;;;;;;;1999.90;999.90;;;7.90;99.90;;;;;;5018814;28;20170;-82
2021/01/12 11:02:32;;;;;;;1999.90;999.90;;;7.80;99.90;;;;;;5000391;28;20196;-82
2021/01/12 11:04:58;;;;;;;1999.90;999.90;;;7.90;99.90;;;;;;5018347;28;20170;-82
2021/01/12 11:07:24;;;;;;;1999.90;999.90;;;7.90;99.90;;;;;;5017617;28;20169;-82
2021/01/12 11:09:49;;;;;;;1999.90;999.90;;;7.80;99.90;;;;;;5000487;28;20703;-81
2021/01/12 11:12:15;;;;;;;1999.90;999.90;;;7.80;99.90;;;;;;5017526;28;20194;-82
2021/01/12 11:14:41;;;;;;;1999.90;999.90;;;7.90;99.90;;;;;;5017454;28;20596;-82
2021/01/12 11:17:11;;;;;;;1999.90;999.90;;;7.90;99.90;;;;;;4999893;28;20228;-82
2021/01/12 11:19:40;;;;;;;1999.90;999.90;;;7.80;99.90;;;;;;4999445;28;20201;-82
2021/01/12 11:22:08;;;;;;;1999.90;999.90;;;7.80;99.90;;;;;;5015794;28;20188;-82
2021/01/12 11:24:34;;;;;;;1999.90;999.90;;;7.80;99.90;;;;;;5017430;28;20245;-82
2021/01/12 11:27:07;;;;;;;1999.90;999.90;;;7.80;99.90;;;;;;5018274;28;20166;-82
2021/01/12 11:29:33;;;;;;;1999.90;999.90;;;7.70;99.90;;;;;;5001523;28;20162;-83
2021/01/12 11:32:00;;;;;;;1999.90;999.90;;;7.60;99.90;;;;;;5018009;28;20683;-82
2021/01/12 11:34:26;;;;;;;1999.90;999.90;;;7.60;99.90;;;;;;5017417;28;20173;-82
2021/01/12 11:36:52;;;;;;;1999.90;999.90;;;7.60;99.90;;;;;;5018061;28;20162;-82
2021/01/12 11:39:19;;;;;;;1999.90;999.90;;;7.60;99.90;;;;;;5000588;28;20176;-81
2021/01/12 11:41:49;;;;;;;1999.90;999.90;;;7.60;99.90;;;;;;5017817;28;20428;-82
2021/01/12 11:44:15;;;;;;;1999.90;999.90;;;7.60;99.90;;;;;;4999129;28;20165;-81
2021/01/12 11:46:42;;;;;;;1999.90;999.90;;;7.60;99.90;;;;;;5015791;28;20219;-83
2021/01/12 11:49:08;;;;;;;1999.90;999.90;;;7.60;99.90;;;;;;5015175;28;20197;-83
2021/01/12 11:51:45;;;;;;;1999.90;999.90;;;7.60;99.90;;;;;;4998699;28;20193;-83
2021/01/12 11:54:12;;;;;;;1999.90;999.90;;;7.50;99.90;;;;;;4999276;28;20185;-83
2021/01/12 11:56:38;;;;;;;1999.90;999.90;;;7.50;99.90;;;;;;5018161;28;20162;-83
2021/01/12 11:59:05;;;;;;;1999.90;999.90;;;7.40;99.90;;;;;;4998314;28;20162;-82
2021/01/12 12:01:50;;;;;;;1999.90;999.90;;;7.40;99.90;;;;;;4997378;28;20279;-81
2021/01/12 12:04:17;;;;;;;1999.90;999.90;;;7.50;99.90;;;;;;5015726;28;20170;-82
2021/01/12 12:06:58;;;;;;;1999.90;999.90;;;7.40;99.90;;;;;;5015102;28;20170;-82
2021/01/12 12:09:35;;;;;;;1999.90;999.90;;;7.40;99.90;;;;;;4997691;28;20165;-82
2021/01/12 12:12:02;;;;;;;1999.90;999.90;;;7.20;99.90;;;;;;4997488;28;20186;-82
2021/01/12 12:14:29;;;;;;;1999.90;999.90;;;7.20;99.90;;;;;;4997423;28;20624;-82
2021/01/12 12:16:56;;;;;;;1999.90;999.90;;;7.10;99.90;;;;;;5014973;28;20165;-83
2021/01/12 12:19:22;;;;;;;1999.90;999.90;;;7.10;99.90;;;;;;5016972;28;20181;-84
2021/01/12 12:21:53;;;;;;;1999.90;999.90;;;7.00;99.90;;;;;;5004058;28;20260;-84
2021/01/12 12:24:21;;;;;;;1999.90;999.90;;;6.90;99.90;;;;;;5004503;28;20547;-83
2021/01/12 12:26:48;;;;;;;1999.90;999.90;;;6.80;99.90;;;;;;5021938;28;20162;-82
2021/01/12 12:29:14;;;;;;;1999.90;999.90;;;6.80;99.90;;;;;;5003143;28;20568;-83
2021/01/12 12:31:40;;;;;;;1999.90;999.90;;;6.80;99.90;;;;;;5021769;28;20193;-83